createdAt,value
2023-02-21T00:00:47.479Z,9.67
2023-02-21T00:06:17.294Z,9.64
2023-02-21T00:11:39.214Z,9.64
2023-02-21T00:17:01.018Z,9.65
2023-02-21T00:22:22.008Z,9.61
2023-02-21T00:27:44.722Z,9.56
2023-02-21T00:33:07.306Z,9.51
2023-02-21T00:38:29.643Z,9.50
2023-02-21T00:43:53.323Z,9.46
2023-02-21T00:49:15.429Z,9.44
2023-02-21T00:54:37.272Z,9.44
2023-02-21T00:59:59.458Z,9.47
2023-02-21T01:05:21.309Z,9.47
2023-02-21T01:10:42.050Z,9.45
2023-02-21T01:16:04.473Z,9.43
2023-02-21T01:21:31.512Z,9.40
2023-02-21T01:26:54.965Z,9.34
2023-02-21T01:32:16.677Z,9.30
2023-02-21T01:37:38.453Z,9.26
2023-02-21T01:42:59.306Z,9.23
2023-02-21T01:48:21.302Z,9.21
2023-02-21T01:53:45.225Z,9.17
2023-02-21T01:59:09.981Z,9.14
2023-02-21T02:04:33.303Z,9.11
2023-02-21T02:09:55.101Z,9.06
2023-02-21T02:15:28.917Z,8.99
2023-02-21T02:20:54.732Z,8.94
2023-02-21T02:26:26.698Z,8.91
2023-02-21T02:31:38.278Z,8.88
2023-02-21T02:36:49.300Z,8.86
2023-02-21T02:42:02.673Z,8.84
2023-02-21T02:47:13.011Z,8.82
2023-02-21T02:52:16.445Z,8.83
2023-02-21T02:57:20.149Z,8.80
2023-02-21T03:02:50.882Z,8.83
2023-02-21T03:08:02.819Z,8.86
2023-02-21T03:13:12.746Z,8.86
2023-02-21T03:18:25.039Z,8.86
2023-02-21T03:23:33.216Z,8.86
2023-02-21T03:28:37.686Z,8.85
2023-02-21T03:33:41.566Z,8.87
2023-02-21T03:38:45.403Z,8.89
2023-02-21T03:43:49.116Z,8.89
2023-02-21T03:48:53.799Z,8.89
2023-02-21T03:54:02.018Z,8.85
2023-02-21T03:59:11.031Z,8.87
2023-02-21T04:04:14.716Z,8.87
2023-02-21T04:09:19.101Z,8.87
2023-02-21T04:14:22.977Z,8.88
2023-02-21T04:19:26.786Z,8.87
2023-02-21T04:24:30.333Z,8.89
2023-02-21T04:29:34.004Z,8.91
2023-02-21T04:34:37.712Z,8.92
2023-02-21T04:39:41.257Z,8.94
2023-02-21T04:44:55.005Z,8.96
2023-02-21T04:50:03.806Z,8.98
2023-02-21T04:55:08.710Z,8.97
2023-02-21T05:00:15.009Z,8.94
2023-02-21T05:05:18.804Z,8.90
2023-02-21T05:10:22.268Z,8.81
2023-02-21T05:15:25.909Z,8.66
2023-02-21T05:20:29.399Z,8.58
2023-02-21T05:25:32.932Z,8.56
2023-02-21T05:30:36.652Z,8.54
2023-02-21T05:35:40.193Z,8.53
2023-02-21T05:40:43.677Z,8.50
2023-02-21T05:45:47.254Z,8.50
2023-02-21T05:50:50.826Z,8.50
2023-02-21T05:55:54.465Z,8.58
2023-02-21T06:00:57.943Z,8.68
2023-02-21T06:06:01.865Z,8.75
2023-02-21T06:11:05.729Z,8.83
2023-02-21T06:16:09.336Z,8.92
2023-02-21T06:21:14.889Z,9.02
2023-02-21T06:26:20.004Z,9.11
2023-02-21T06:31:24.029Z,9.19
2023-02-21T06:36:29.106Z,9.25
2023-02-21T06:41:32.650Z,9.28
2023-02-21T06:46:37.456Z,9.27
2023-02-21T06:51:42.481Z,9.24
2023-02-21T06:56:46.083Z,9.24
2023-02-21T07:01:49.714Z,9.28
2023-02-21T07:06:53.357Z,9.28
2023-02-21T07:11:56.681Z,9.32
2023-02-21T07:17:00.103Z,9.33
2023-02-21T07:22:03.578Z,9.37
2023-02-21T07:27:07.246Z,9.44
2023-02-21T07:32:10.698Z,9.51
2023-02-21T07:37:14.538Z,9.56
2023-02-21T07:42:18.017Z,9.55
2023-02-21T07:47:22.788Z,9.37
2023-02-21T07:52:26.339Z,9.21
2023-02-21T07:57:29.754Z,9.11
2023-02-21T08:02:33.260Z,9.07
2023-02-21T08:07:38.414Z,9.04
2023-02-21T08:12:41.715Z,9.09
2023-02-21T08:17:47.371Z,9.13
2023-02-21T08:22:50.781Z,9.17
2023-02-21T08:27:54.648Z,9.25
2023-02-21T08:32:58.177Z,9.42
2023-02-21T08:38:03.553Z,9.50
2023-02-21T08:43:06.908Z,9.38
2023-02-21T08:48:10.437Z,9.13
2023-02-21T08:53:15.526Z,9.02
2023-02-21T08:58:19.221Z,9.12
2023-02-21T09:03:22.593Z,9.32
2023-02-21T09:08:28.906Z,9.34
2023-02-21T09:13:32.602Z,9.27
2023-02-21T09:18:36.061Z,9.19
2023-02-21T09:23:39.416Z,9.20
2023-02-21T09:28:43.495Z,9.21
2023-02-21T09:33:47.295Z,9.29
2023-02-21T09:38:51.298Z,9.38
2023-02-21T09:43:55.008Z,9.47
2023-02-21T09:48:59.145Z,9.57
2023-02-21T09:54:04.250Z,9.75
2023-02-21T09:59:11.424Z,10.02
2023-02-21T10:04:22.039Z,10.33
2023-02-21T10:09:44.496Z,10.63
2023-02-21T10:15:11.760Z,10.83
2023-02-21T10:20:26.520Z,11.09
2023-02-21T10:25:32.932Z,11.43
2023-02-21T10:30:40.197Z,11.74
2023-02-21T10:35:43.774Z,11.83
2023-02-21T10:40:51.516Z,11.89
2023-02-21T10:45:59.470Z,11.91
2023-02-21T10:51:08.992Z,11.94
2023-02-21T10:56:25.569Z,11.94
2023-02-21T11:01:36.179Z,11.86
2023-02-21T11:06:44.196Z,11.62
2023-02-21T11:11:47.658Z,11.29
2023-02-21T11:17:18.421Z,10.93
2023-02-21T11:22:24.759Z,10.45
2023-02-21T11:27:31.474Z,10.36
2023-02-21T11:32:38.622Z,10.41
2023-02-21T11:37:55.564Z,10.61
2023-02-21T11:43:26.333Z,10.77
2023-02-21T11:48:32.615Z,10.83
2023-02-21T11:53:41.433Z,11.04
2023-02-21T11:58:54.536Z,11.29
2023-02-21T12:04:19.961Z,11.59
2023-02-21T12:09:32.692Z,11.59
2023-02-21T12:14:45.875Z,11.40
2023-02-21T12:20:08.126Z,11.20
2023-02-21T12:25:21.391Z,11.41
2023-02-21T12:30:40.399Z,11.61
2023-02-21T12:36:19.797Z,11.56
2023-02-21T12:41:40.911Z,11.44
2023-02-21T12:46:50.656Z,11.20
2023-02-21T12:51:59.204Z,11.03
2023-02-21T12:57:07.056Z,11.29
2023-02-21T13:02:21.401Z,11.96
2023-02-21T13:07:32.172Z,12.11
2023-02-21T13:12:41.119Z,12.34
2023-02-21T13:17:56.272Z,13.02
2023-02-21T13:23:54.632Z,13.51
2023-02-21T13:28:59.502Z,13.48
2023-02-21T13:34:06.116Z,14.11
2023-02-21T13:39:14.494Z,14.88
2023-02-21T13:44:25.461Z,15.39
2023-02-21T13:49:38.539Z,14.73
2023-02-21T13:55:25.897Z,13.69
2023-02-21T14:00:50.332Z,13.66
2023-02-21T14:06:41.410Z,13.31
2023-02-21T14:11:48.713Z,13.16
2023-02-21T14:16:59.042Z,13.33
2023-02-21T14:22:10.202Z,14.07
2023-02-21T14:27:27.179Z,15.05
2023-02-21T14:32:35.214Z,15.67
2023-02-21T14:37:43.465Z,15.74
2023-02-21T14:42:54.697Z,14.69
2023-02-21T14:48:01.283Z,14.30
2023-02-21T14:53:46.507Z,13.49
2023-02-21T14:59:07.673Z,12.78
2023-02-21T15:04:15.083Z,12.17
2023-02-21T15:09:20.673Z,11.80
2023-02-21T15:14:26.632Z,11.53
2023-02-21T15:19:32.016Z,11.33
2023-02-21T15:24:35.409Z,11.20
2023-02-21T15:29:39.445Z,11.21
2023-02-21T15:34:45.651Z,11.14
2023-02-21T15:39:55.334Z,11.04
2023-02-21T15:45:03.101Z,10.92
2023-02-21T15:50:11.716Z,10.87
2023-02-21T15:55:28.946Z,10.76
2023-02-21T16:00:34.344Z,10.49
2023-02-21T16:05:37.736Z,10.24
2023-02-21T16:10:42.461Z,10.03
2023-02-21T16:15:45.955Z,9.89
2023-02-21T16:21:00.117Z,9.77
2023-02-21T16:26:27.351Z,9.65
2023-02-21T16:31:33.235Z,9.53
2023-02-21T16:36:38.594Z,9.48
2023-02-21T16:41:42.186Z,9.43
2023-02-21T16:46:45.910Z,9.36
2023-02-21T16:51:50.364Z,9.29
2023-02-21T16:56:54.030Z,9.24
2023-02-21T17:01:57.670Z,9.16
2023-02-21T17:07:04.276Z,9.04
2023-02-21T17:12:07.992Z,8.87
2023-02-21T17:17:11.745Z,8.74
2023-02-21T17:22:15.219Z,8.65
2023-02-21T17:27:18.769Z,8.57
2023-02-21T17:32:22.338Z,8.48
2023-02-21T17:37:25.802Z,8.43
2023-02-21T17:42:29.187Z,8.38
2023-02-21T17:47:32.947Z,8.32
2023-02-21T17:52:36.278Z,8.26
2023-02-21T17:57:40.102Z,8.19
2023-02-21T18:02:43.424Z,8.12
2023-02-21T18:07:48.725Z,8.05
2023-02-21T18:12:52.894Z,7.96
2023-02-21T18:17:57.818Z,7.89
2023-02-21T18:23:03.068Z,7.83
2023-02-21T18:28:07.808Z,7.77
2023-02-21T18:33:11.318Z,7.73
2023-02-21T18:38:16.354Z,7.69
2023-02-21T18:43:21.878Z,7.64
2023-02-21T18:48:26.036Z,7.58
2023-02-21T18:53:29.671Z,7.50
2023-02-21T18:58:33.072Z,7.45
2023-02-21T19:03:36.560Z,7.40
2023-02-21T19:08:40.207Z,7.36
2023-02-21T19:13:46.599Z,7.32
2023-02-21T19:18:50.826Z,7.27
2023-02-21T19:23:54.310Z,7.23
2023-02-21T19:28:57.786Z,7.20
2023-02-21T19:34:01.245Z,7.12
2023-02-21T19:39:05.530Z,7.02
2023-02-21T19:44:09.057Z,6.91
2023-02-21T19:49:17.250Z,6.81
2023-02-21T19:54:23.802Z,6.76
2023-02-21T19:59:28.805Z,6.74
2023-02-21T20:04:33.062Z,6.74
2023-02-21T20:09:36.952Z,6.74
2023-02-21T20:14:45.270Z,6.76
2023-02-21T20:19:48.840Z,6.77
2023-02-21T20:24:52.298Z,6.76
2023-02-21T20:29:56.762Z,6.72
2023-02-21T20:35:01.117Z,6.67
2023-02-21T20:40:07.511Z,6.60
2023-02-21T20:45:11.313Z,6.57
2023-02-21T20:50:19.897Z,6.54
2023-02-21T20:55:24.573Z,6.52
2023-02-21T21:00:29.687Z,6.50
2023-02-21T21:05:33.059Z,6.48
2023-02-21T21:10:36.980Z,6.44
2023-02-21T21:15:41.013Z,6.40
2023-02-21T21:20:44.735Z,6.37
2023-02-21T21:25:48.246Z,6.33
2023-02-21T21:30:51.688Z,6.31
2023-02-21T21:35:58.040Z,6.27
2023-02-21T21:41:06.879Z,6.24
2023-02-21T21:46:11.282Z,6.23
2023-02-21T21:51:15.202Z,6.21
2023-02-21T21:56:26.552Z,6.18
2023-02-21T22:01:29.974Z,6.14
2023-02-21T22:06:33.314Z,6.09
2023-02-21T22:11:37.131Z,6.06
2023-02-21T22:16:42.322Z,6.00
2023-02-21T22:21:45.808Z,5.97
2023-02-21T22:26:51.701Z,5.95
2023-02-21T22:31:55.702Z,5.92
2023-02-21T22:36:59.354Z,5.88
2023-02-21T22:42:08.101Z,5.84
2023-02-21T22:47:14.312Z,5.79
2023-02-21T22:52:17.633Z,5.74
2023-02-21T22:57:21.285Z,5.69
2023-02-21T23:02:25.276Z,5.67
2023-02-21T23:07:28.805Z,5.66
2023-02-21T23:12:32.152Z,5.64
2023-02-21T23:17:35.681Z,5.61
2023-02-21T23:22:39.096Z,5.56
2023-02-21T23:27:42.427Z,5.47
2023-02-21T23:32:47.263Z,5.38
2023-02-21T23:37:52.656Z,5.27
2023-02-21T23:42:56.571Z,5.17
2023-02-21T23:48:00.048Z,5.06
2023-02-21T23:53:05.020Z,4.94
2023-02-21T23:58:12.134Z,4.81
